UNEE/KEJ METAR and TAF weather

Enter ICAO airport designator
Station Type Date Time Source
UNEE METAR 2018/12/13 06:00 UTC NOAA

UNEE 130600Z 15002MPS 5000 -SHSN BR SCT015CB M10/M11 Q1025 R23/891035 NOSIG RMK QFE746


Station Type Date Time Source
UNEE Decoded METAR 2018/12/13 06:00 UTC NOAA

Kemerovo, Russia (UNEE) 55-19-48N 086-04-48E
Dec 13, 2018 - 01:00 AM EST / 2018.12.13 0600 UTC
Wind: from the SSE (150 degrees) at 4 MPH (4 KT):0
Visibility: 3 mile(s):0
Sky conditions: partly cloudy
Weather: light snow showers; mist; Cumulonimbus clouds observed
Temperature: 14 F (-10 C)
Dew Point: 12 F (-11 C)
Relative Humidity: 92%
Pressure (altimeter): 30.27 in. Hg (1025 hPa)
ob: UNEE 130600Z 15002MPS 5000 -SHSN BR SCT015CB M10/M11 Q1025 R23/891035 NOSIG RMK QFE746
cycle: 6

Station Type Date Time Source
UNEE TAF 2018/12/13 06:21 UTC NOAA

TAF UNEE 130500Z 1306/1406 18003G08MPS 5000 -SHSN BKN020CB
TEMPO 1306/1318 3100 -SHSN BKN011CB
TEMPO 1318/1406 20006G13MPS 1500 SHSN BKN004 BKN011CB


Example: see airport list